createdAt,value
2022-08-27T00:01:22.176Z,5.85
2022-08-27T00:03:49.304Z,5.50
2022-08-27T00:06:19.642Z,5.85
2022-08-27T00:08:48.180Z,5.68
2022-08-27T00:11:17.496Z,6.05
2022-08-27T00:13:45.646Z,6.53
2022-08-27T00:16:15.216Z,6.65
2022-08-27T00:18:44.418Z,6.80
2022-08-27T00:21:16.766Z,6.57
2022-08-27T00:23:44.177Z,6.65
2022-08-27T00:26:11.766Z,6.82
2022-08-27T00:28:39.886Z,6.47
2022-08-27T00:31:07.603Z,5.97
2022-08-27T00:33:37.040Z,5.93
2022-08-27T00:36:05.461Z,6.47
2022-08-27T00:38:36.378Z,6.07
2022-08-27T00:41:03.671Z,6.05
2022-08-27T00:43:43.342Z,5.80
2022-08-27T00:46:32.475Z,6.10
2022-08-27T00:49:07.496Z,5.63
2022-08-27T00:51:37.056Z,5.95
2022-08-27T00:54:05.837Z,6.18
2022-08-27T00:56:39.495Z,6.00
2022-08-27T00:59:07.349Z,7.35
2022-08-27T01:01:35.789Z,5.60
2022-08-27T01:04:06.004Z,6.28
2022-08-27T01:06:37.263Z,6.30
2022-08-27T01:09:09.992Z,6.78
2022-08-27T01:11:38.164Z,6.68
2022-08-27T01:14:06.404Z,7.38
2022-08-27T01:16:40.438Z,6.10
2022-08-27T01:19:14.413Z,6.10
2022-08-27T01:22:00.285Z,6.05
2022-08-27T01:24:41.764Z,6.32
2022-08-27T01:27:13.978Z,7.20
2022-08-27T01:29:42.529Z,7.18
2022-08-27T01:32:14.945Z,6.00
2022-08-27T01:34:42.403Z,6.78
2022-08-27T01:37:09.790Z,7.20
2022-08-27T01:39:39.796Z,6.70
2022-08-27T01:42:20.626Z,6.25
2022-08-27T01:44:50.659Z,6.30
2022-08-27T01:47:20.884Z,6.38
2022-08-27T01:49:48.369Z,7.30
2022-08-27T01:52:19.217Z,7.15
2022-08-27T01:54:47.984Z,6.53
2022-08-27T01:57:16.561Z,7.43
2022-08-27T01:59:43.908Z,7.55
2022-08-27T02:02:12.461Z,6.93
2022-08-27T02:04:39.836Z,7.38
2022-08-27T02:07:07.732Z,7.20
2022-08-27T02:09:34.802Z,6.95
2022-08-27T02:12:02.314Z,11.30
2022-08-27T02:14:29.477Z,11.32
2022-08-27T02:16:56.588Z,11.85
2022-08-27T02:19:23.695Z,11.77
2022-08-27T02:21:51.602Z,12.82
2022-08-27T02:24:18.838Z,11.20
2022-08-27T02:26:45.996Z,8.98
2022-08-27T02:29:13.033Z,8.57
2022-08-27T02:31:41.431Z,7.63
2022-08-27T02:34:09.936Z,7.35
2022-08-27T02:36:37.534Z,8.80
2022-08-27T02:39:06.314Z,8.05
2022-08-27T02:41:33.380Z,8.82
2022-08-27T02:44:01.466Z,9.45
2022-08-27T02:46:29.197Z,10.45
2022-08-27T02:48:56.320Z,10.85
2022-08-27T02:51:23.313Z,10.63
2022-08-27T02:53:50.436Z,10.90
2022-08-27T02:56:21.670Z,10.07
2022-08-27T02:58:49.244Z,9.60
2022-08-27T03:01:16.639Z,10.35
2022-08-27T03:03:43.816Z,11.40
2022-08-27T03:06:11.572Z,13.02
2022-08-27T03:08:52.752Z,13.80
2022-08-27T03:11:23.141Z,15.80
2022-08-27T03:13:50.534Z,18.92
2022-08-27T03:16:17.782Z,18.92
2022-08-27T03:18:45.307Z,17.38
2022-08-27T03:21:24.368Z,12.88
2022-08-27T03:23:52.199Z,10.05
2022-08-27T03:26:20.040Z,9.32
2022-08-27T03:28:47.151Z,8.88
2022-08-27T03:31:22.664Z,9.35
2022-08-27T03:33:49.777Z,9.23
2022-08-27T03:36:16.744Z,9.43
2022-08-27T03:38:43.837Z,9.88
2022-08-27T03:41:11.498Z,8.60
2022-08-27T03:43:38.523Z,8.32
2022-08-27T03:46:07.069Z,8.57
2022-08-27T03:48:34.709Z,9.10
2022-08-27T03:51:12.557Z,8.50
2022-08-27T03:53:41.508Z,8.93
2022-08-27T03:56:09.362Z,7.88
2022-08-27T03:58:37.534Z,8.90
2022-08-27T04:01:07.967Z,9.13
2022-08-27T04:03:35.529Z,9.10
2022-08-27T04:06:03.760Z,9.55
2022-08-27T04:08:31.125Z,9.38
2022-08-27T04:10:58.188Z,9.00
2022-08-27T04:13:25.590Z,9.07
2022-08-27T04:15:55.262Z,8.52
2022-08-27T04:18:22.467Z,8.95
2022-08-27T04:20:52.823Z,8.88
2022-08-27T04:23:20.684Z,9.07
2022-08-27T04:25:48.374Z,8.73
2022-08-27T04:28:16.355Z,9.52
2022-08-27T04:30:46.130Z,8.50
2022-08-27T04:33:14.170Z,8.82
2022-08-27T04:35:42.540Z,8.48
2022-08-27T04:38:09.961Z,8.77
2022-08-27T04:40:56.637Z,7.88
2022-08-27T04:43:23.874Z,8.15
2022-08-27T04:45:51.133Z,8.75
2022-08-27T04:48:19.880Z,8.98
2022-08-27T04:50:48.444Z,8.05
2022-08-27T04:53:17.587Z,8.68
2022-08-27T04:55:47.116Z,9.20
2022-08-27T04:58:14.546Z,9.05
2022-08-27T05:00:48.663Z,8.63
2022-08-27T05:03:18.038Z,8.95
2022-08-27T05:05:47.194Z,9.25
2022-08-27T05:08:14.493Z,9.77
2022-08-27T05:10:43.131Z,9.60
2022-08-27T05:13:11.579Z,9.93
2022-08-27T05:15:40.252Z,11.50
2022-08-27T05:18:08.680Z,12.50
2022-08-27T05:20:43.794Z,12.98
2022-08-27T05:23:11.725Z,13.52
2022-08-27T05:25:41.650Z,9.88
2022-08-27T05:28:10.427Z,8.45
2022-08-27T05:30:40.616Z,9.00
2022-08-27T05:33:08.971Z,8.43
2022-08-27T05:35:43.986Z,8.45
2022-08-27T05:38:11.362Z,8.98
2022-08-27T05:40:43.948Z,9.20
2022-08-27T05:43:13.158Z,8.27
2022-08-27T05:45:46.017Z,8.18
2022-08-27T05:48:14.357Z,7.68
2022-08-27T05:50:43.548Z,7.55
2022-08-27T05:53:12.348Z,7.35
2022-08-27T05:55:42.215Z,6.90
2022-08-27T05:58:30.527Z,8.27
2022-08-27T06:01:10.174Z,7.03
2022-08-27T06:03:38.819Z,7.78
2022-08-27T06:06:11.169Z,7.88
2022-08-27T06:08:39.167Z,7.68
2022-08-27T06:11:07.689Z,7.03
2022-08-27T06:13:36.318Z,7.70
2022-08-27T06:16:08.688Z,6.82
2022-08-27T06:18:38.831Z,7.45
2022-08-27T06:21:06.243Z,7.40
2022-08-27T06:23:33.606Z,6.25
2022-08-27T06:26:02.036Z,7.60
2022-08-27T06:28:30.029Z,11.15
2022-08-27T06:31:15.318Z,12.52
2022-08-27T06:33:44.367Z,9.07
2022-08-27T06:36:14.167Z,6.07
2022-08-27T06:38:43.306Z,6.22
2022-08-27T06:41:16.406Z,6.43
2022-08-27T06:43:51.350Z,6.28
2022-08-27T06:46:22.207Z,7.57
2022-08-27T06:48:56.711Z,9.38
2022-08-27T06:51:26.535Z,7.45
2022-08-27T06:53:55.860Z,7.75
2022-08-27T06:56:23.493Z,7.72
2022-08-27T06:58:55.500Z,7.60
2022-08-27T07:01:30.398Z,7.60
2022-08-27T07:04:03.681Z,8.07
2022-08-27T07:06:33.205Z,7.13
2022-08-27T07:09:01.895Z,7.60
2022-08-27T07:11:32.029Z,7.03
2022-08-27T07:14:00.559Z,5.60
2022-08-27T07:16:29.111Z,4.90
2022-08-27T07:19:03.723Z,5.97
2022-08-27T07:21:33.126Z,4.20
2022-08-27T07:24:05.314Z,5.50
2022-08-27T07:26:38.677Z,5.20
2022-08-27T07:29:07.797Z,6.18
2022-08-27T07:31:38.819Z,5.63
2022-08-27T07:34:07.225Z,4.28
2022-08-27T07:36:35.127Z,4.72
2022-08-27T07:39:02.263Z,4.65
2022-08-27T07:41:32.037Z,4.47
2022-08-27T07:44:20.798Z,5.28
2022-08-27T07:46:49.457Z,3.90
2022-08-27T07:49:20.423Z,4.10
2022-08-27T07:51:47.937Z,4.40
2022-08-27T07:54:15.936Z,4.10
2022-08-27T07:56:44.230Z,3.90
2022-08-27T07:59:22.227Z,3.92
2022-08-27T08:01:51.527Z,4.00
2022-08-27T08:04:20.493Z,4.30
2022-08-27T08:06:48.743Z,3.78
2022-08-27T08:09:16.557Z,3.80
2022-08-27T08:11:43.710Z,4.00
2022-08-27T08:14:10.995Z,4.75
2022-08-27T08:16:38.184Z,4.32
2022-08-27T08:19:05.349Z,3.90
2022-08-27T08:21:34.180Z,4.40
2022-08-27T08:24:02.764Z,4.05
2022-08-27T08:26:30.145Z,4.00
2022-08-27T08:28:58.043Z,3.90
2022-08-27T08:31:25.144Z,5.05
2022-08-27T08:33:52.384Z,4.88
2022-08-27T08:36:19.460Z,4.47
2022-08-27T08:38:47.994Z,4.18
2022-08-27T08:41:45.740Z,5.20
2022-08-27T08:44:34.850Z,4.65
2022-08-27T08:47:10.344Z,4.78
2022-08-27T08:49:37.361Z,4.70
2022-08-27T08:52:40.664Z,4.78
2022-08-27T08:55:16.764Z,4.50
2022-08-27T08:58:07.086Z,5.88
2022-08-27T09:00:34.899Z,4.82
2022-08-27T09:03:01.967Z,4.40
2022-08-27T09:05:30.330Z,4.80
2022-08-27T09:08:28.442Z,4.57
2022-08-27T09:10:59.310Z,4.72
2022-08-27T09:13:33.038Z,4.47
2022-08-27T09:16:04.019Z,4.60
2022-08-27T09:18:35.381Z,4.50
2022-08-27T09:21:28.056Z,5.07
2022-08-27T09:24:19.871Z,4.80
2022-08-27T09:26:47.116Z,4.22
2022-08-27T09:29:18.674Z,4.32
2022-08-27T09:32:08.724Z,4.65
2022-08-27T09:34:39.483Z,4.20
2022-08-27T09:37:18.005Z,4.05
2022-08-27T09:39:52.805Z,4.30
2022-08-27T09:42:27.426Z,3.90
2022-08-27T09:44:55.815Z,3.80
2022-08-27T09:47:23.968Z,4.20
2022-08-27T09:50:07.023Z,3.60
2022-08-27T09:53:08.556Z,3.85
2022-08-27T09:55:40.787Z,4.20
2022-08-27T09:58:16.159Z,4.70
2022-08-27T10:00:43.241Z,4.68
2022-08-27T10:03:11.725Z,4.30
2022-08-27T10:05:47.396Z,4.38
2022-08-27T10:08:39.122Z,4.72
2022-08-27T10:11:12.888Z,5.13
2022-08-27T10:14:16.598Z,4.00
2022-08-27T10:16:52.891Z,4.30
2022-08-27T10:20:02.983Z,4.43
2022-08-27T10:22:55.153Z,4.82
2022-08-27T10:25:55.525Z,4.53
2022-08-27T10:28:28.592Z,4.90
2022-08-27T10:31:22.115Z,4.72
2022-08-27T10:34:03.784Z,4.85
2022-08-27T10:36:44.677Z,4.40
2022-08-27T10:39:22.649Z,3.95
2022-08-27T10:42:14.090Z,4.07
2022-08-27T10:44:54.920Z,3.67
2022-08-27T10:48:00.005Z,4.28
2022-08-27T10:50:42.480Z,3.88
2022-08-27T10:53:23.317Z,4.20
2022-08-27T10:56:01.212Z,4.30
2022-08-27T10:59:00.280Z,4.82
2022-08-27T11:01:48.556Z,4.60
2022-08-27T11:04:21.647Z,4.30
2022-08-27T11:06:58.060Z,4.70
2022-08-27T11:09:56.165Z,4.95
2022-08-27T11:12:32.339Z,3.90
2022-08-27T11:15:06.486Z,4.07
2022-08-27T11:18:07.490Z,4.60
2022-08-27T11:20:40.441Z,5.10
2022-08-27T11:23:12.650Z,4.45
2022-08-27T11:26:02.217Z,3.50
2022-08-27T11:28:53.353Z,3.35
2022-08-27T11:31:23.156Z,2.80
2022-08-27T11:33:58.274Z,3.45
2022-08-27T11:36:43.856Z,3.28
2022-08-27T11:39:52.044Z,3.33
2022-08-27T11:42:43.459Z,3.17
2022-08-27T11:45:20.043Z,3.30
2022-08-27T11:47:59.650Z,3.30
2022-08-27T11:50:28.793Z,3.45
2022-08-27T11:52:58.623Z,3.33
2022-08-27T11:55:33.284Z,3.80
2022-08-27T11:58:29.292Z,3.35
2022-08-27T12:01:02.244Z,3.30
2022-08-27T12:03:35.421Z,3.80
2022-08-27T12:06:29.938Z,3.70
2022-08-27T12:09:14.695Z,3.72
2022-08-27T12:11:56.769Z,3.40
2022-08-27T12:14:45.580Z,4.05
2022-08-27T12:17:45.638Z,3.42
2022-08-27T12:20:30.289Z,3.72
2022-08-27T12:23:26.418Z,3.95
2022-08-27T12:25:58.758Z,4.55
2022-08-27T12:28:27.057Z,3.50
2022-08-27T12:30:56.399Z,3.90
2022-08-27T12:33:32.462Z,5.35
2022-08-27T12:36:15.374Z,4.28
2022-08-27T12:38:53.591Z,4.07
2022-08-27T12:41:44.783Z,4.28
2022-08-27T12:44:27.531Z,3.70
2022-08-27T12:47:13.405Z,4.10
2022-08-27T12:49:58.033Z,4.50
2022-08-27T12:52:31.095Z,4.07
2022-08-27T12:55:30.183Z,4.57
2022-08-27T12:58:24.092Z,4.45
2022-08-27T13:01:03.407Z,4.50
2022-08-27T13:03:36.150Z,4.35
2022-08-27T13:06:14.411Z,4.32
2022-08-27T13:08:41.693Z,4.25
2022-08-27T13:11:21.955Z,3.65
2022-08-27T13:13:50.479Z,4.20
2022-08-27T13:16:22.234Z,4.07
2022-08-27T13:18:51.090Z,3.50
2022-08-27T13:21:27.539Z,3.97
2022-08-27T13:23:54.533Z,4.30
2022-08-27T13:26:24.444Z,3.72
2022-08-27T13:28:52.711Z,4.28
2022-08-27T13:31:23.271Z,4.10
2022-08-27T13:33:51.145Z,3.95
2022-08-27T13:36:33.268Z,3.88
2022-08-27T13:39:03.114Z,3.50
2022-08-27T13:41:35.951Z,3.55
2022-08-27T13:44:12.468Z,3.47
2022-08-27T13:46:48.935Z,3.88
2022-08-27T13:49:24.440Z,3.63
2022-08-27T13:52:14.084Z,3.97
2022-08-27T13:54:47.125Z,3.63
2022-08-27T13:57:31.709Z,3.17
2022-08-27T14:00:10.994Z,3.35
2022-08-27T14:02:38.212Z,3.45
2022-08-27T14:05:05.603Z,3.45
2022-08-27T14:07:45.098Z,3.70
2022-08-27T14:10:18.413Z,3.72
2022-08-27T14:12:55.827Z,3.35
2022-08-27T14:15:47.929Z,3.67
2022-08-27T14:18:58.937Z,3.90
2022-08-27T14:21:26.904Z,3.85
2022-08-27T14:23:54.456Z,3.40
2022-08-27T14:26:21.488Z,3.13
2022-08-27T14:28:48.861Z,3.45
2022-08-27T14:31:16.728Z,3.13
2022-08-27T14:33:44.424Z,3.50
2022-08-27T14:36:11.612Z,3.67
2022-08-27T14:38:42.551Z,3.58
2022-08-27T14:41:09.940Z,3.22
2022-08-27T14:43:38.259Z,2.83
2022-08-27T14:46:07.050Z,3.10
2022-08-27T14:48:35.143Z,3.30
2022-08-27T14:51:12.575Z,3.30
2022-08-27T14:53:39.603Z,3.20
2022-08-27T14:56:06.882Z,3.33
2022-08-27T14:58:35.428Z,3.30
2022-08-27T15:01:03.951Z,3.20
2022-08-27T15:03:31.764Z,3.97
2022-08-27T15:05:58.780Z,3.28
2022-08-27T15:08:29.450Z,3.47
2022-08-27T15:11:00.029Z,4.10
2022-08-27T15:13:27.340Z,3.05
2022-08-27T15:15:54.543Z,3.40
2022-08-27T15:18:21.759Z,3.00
2022-08-27T15:20:49.627Z,2.80
2022-08-27T15:23:17.090Z,3.13
2022-08-27T15:25:46.645Z,3.22
2022-08-27T15:28:13.868Z,2.70
2022-08-27T15:30:41.104Z,3.22
2022-08-27T15:33:08.668Z,3.15
2022-08-27T15:35:35.833Z,2.83
2022-08-27T15:38:03.741Z,3.03
2022-08-27T15:40:34.983Z,2.78
2022-08-27T15:43:05.410Z,2.60
2022-08-27T15:45:33.328Z,3.00
2022-08-27T15:48:01.339Z,3.05
2022-08-27T15:50:29.959Z,2.97
2022-08-27T15:53:00.561Z,2.65
2022-08-27T15:55:31.118Z,3.20
2022-08-27T15:57:58.964Z,2.83
2022-08-27T16:00:28.838Z,2.83
2022-08-27T16:02:57.166Z,3.22
2022-08-27T16:05:25.638Z,2.85
2022-08-27T16:07:52.660Z,3.25
2022-08-27T16:10:19.977Z,3.10
2022-08-27T16:12:47.026Z,3.05
2022-08-27T16:15:15.101Z,2.70
2022-08-27T16:17:43.208Z,3.10
2022-08-27T16:20:13.108Z,3.15
2022-08-27T16:22:41.069Z,2.97
2022-08-27T16:25:09.597Z,3.25
2022-08-27T16:27:37.847Z,2.80
2022-08-27T16:30:06.503Z,3.20
2022-08-27T16:32:33.582Z,3.47
2022-08-27T16:35:00.655Z,3.10
2022-08-27T16:37:27.637Z,3.03
2022-08-27T16:39:54.857Z,2.65
2022-08-27T16:42:21.974Z,2.70
2022-08-27T16:44:49.625Z,2.60
2022-08-27T16:47:16.851Z,2.65
2022-08-27T16:50:02.361Z,2.70
2022-08-27T16:52:29.613Z,2.40
2022-08-27T16:54:56.975Z,2.67
2022-08-27T16:57:24.087Z,2.55
2022-08-27T16:59:51.596Z,2.83
2022-08-27T17:02:31.819Z,2.53
2022-08-27T17:05:23.865Z,2.95
2022-08-27T17:07:49.966Z,2.72
2022-08-27T17:10:20.492Z,2.50
2022-08-27T17:12:48.267Z,2.58
2022-08-27T17:15:17.065Z,2.30
2022-08-27T17:17:45.668Z,2.42
2022-08-27T17:20:13.469Z,2.65
2022-08-27T17:22:40.954Z,2.60
2022-08-27T17:25:08.796Z,2.42
2022-08-27T17:27:35.988Z,2.50
2022-08-27T17:30:03.232Z,2.60
2022-08-27T17:32:34.763Z,2.75
2022-08-27T17:35:05.944Z,2.83
2022-08-27T17:37:34.050Z,2.58
2022-08-27T17:40:01.566Z,2.30
2022-08-27T17:42:29.710Z,2.60
2022-08-27T17:44:57.514Z,2.35
2022-08-27T17:47:27.956Z,2.25
2022-08-27T17:49:55.057Z,1.58
2022-08-27T17:52:22.476Z,1.80
2022-08-27T17:54:54.692Z,1.15
2022-08-27T17:57:28.151Z,1.40
2022-08-27T17:59:56.395Z,1.17
2022-08-27T18:02:41.224Z,1.10
2022-08-27T18:05:12.366Z,1.00
2022-08-27T18:07:40.813Z,1.10
2022-08-27T18:10:10.110Z,1.08
2022-08-27T18:12:37.650Z,0.93
2022-08-27T18:15:18.816Z,1.13
2022-08-27T18:17:48.311Z,1.00
2022-08-27T18:20:22.203Z,1.20
2022-08-27T18:22:49.990Z,1.00
2022-08-27T18:25:19.435Z,1.10
2022-08-27T18:27:49.187Z,1.23
2022-08-27T18:30:16.462Z,1.10
2022-08-27T18:32:43.471Z,0.93
2022-08-27T18:35:23.698Z,0.80
2022-08-27T18:37:51.189Z,1.05
2022-08-27T18:40:20.216Z,1.00
2022-08-27T18:42:48.364Z,1.02
2022-08-27T18:45:23.025Z,0.93
2022-08-27T18:47:54.731Z,0.68
2022-08-27T18:50:22.719Z,1.00
2022-08-27T18:52:54.076Z,1.00
2022-08-27T18:55:25.719Z,0.88
2022-08-27T18:57:52.806Z,0.90
2022-08-27T19:00:20.616Z,0.80
2022-08-27T19:02:52.638Z,1.00
2022-08-27T19:05:27.318Z,0.90
2022-08-27T19:07:56.402Z,0.90
2022-08-27T19:10:24.031Z,1.20
2022-08-27T19:12:51.535Z,0.90
2022-08-27T19:15:18.855Z,0.90
2022-08-27T19:17:50.009Z,0.70
2022-08-27T19:20:18.710Z,0.63
2022-08-27T19:22:46.668Z,1.10
2022-08-27T19:25:15.584Z,0.80
2022-08-27T19:27:44.238Z,0.57
2022-08-27T19:30:13.143Z,0.80
2022-08-27T19:32:40.161Z,0.80
2022-08-27T19:35:08.288Z,0.80
2022-08-27T19:37:39.443Z,0.98
2022-08-27T19:40:09.628Z,0.80
2022-08-27T19:42:36.800Z,0.93
2022-08-27T19:45:04.516Z,0.60
2022-08-27T19:47:32.798Z,1.42
2022-08-27T19:50:00.152Z,0.55
2022-08-27T19:52:27.257Z,0.80
2022-08-27T19:55:13.258Z,0.80
2022-08-27T19:57:42.257Z,0.65
2022-08-27T20:00:11.462Z,0.90
2022-08-27T20:02:38.568Z,0.82
2022-08-27T20:05:22.040Z,0.68
2022-08-27T20:07:51.819Z,0.70
2022-08-27T20:10:23.029Z,2.35
2022-08-27T20:12:53.162Z,1.00
2022-08-27T20:15:21.348Z,13.20
2022-08-27T20:17:52.576Z,23.55
2022-08-27T20:20:23.309Z,10.40
2022-08-27T20:22:50.673Z,8.75
2022-08-27T20:25:18.564Z,3.08
2022-08-27T20:27:46.633Z,3.60
2022-08-27T20:30:15.641Z,1.30
2022-08-27T20:32:43.292Z,1.20
2022-08-27T20:35:11.256Z,1.20
2022-08-27T20:37:42.211Z,5.60
2022-08-27T20:40:13.555Z,6.50
2022-08-27T20:42:40.792Z,6.80
2022-08-27T20:45:11.947Z,2.25
2022-08-27T20:47:40.748Z,1.08
2022-08-27T20:50:08.420Z,0.82
2022-08-27T20:52:36.963Z,0.68
2022-08-27T20:55:04.757Z,1.10
2022-08-27T20:57:31.843Z,7.68
2022-08-27T21:00:17.236Z,1.77
2022-08-27T21:02:46.185Z,2.10
2022-08-27T21:05:16.815Z,1.00
2022-08-27T21:07:45.088Z,1.23
2022-08-27T21:10:12.267Z,0.85
2022-08-27T21:12:39.424Z,0.50
2022-08-27T21:15:08.177Z,0.80
2022-08-27T21:17:36.012Z,0.70
2022-08-27T21:20:11.119Z,0.70
2022-08-27T21:22:40.814Z,1.00
2022-08-27T21:25:09.416Z,0.90
2022-08-27T21:27:37.192Z,0.68
2022-08-27T21:30:05.052Z,0.85
2022-08-27T21:32:32.279Z,0.63
2022-08-27T21:34:59.302Z,0.77
2022-08-27T21:37:26.304Z,0.93
2022-08-27T21:39:53.472Z,0.60
2022-08-27T21:42:22.365Z,0.68
2022-08-27T21:44:49.630Z,0.65
2022-08-27T21:47:16.738Z,0.70
2022-08-27T21:49:44.402Z,0.60
2022-08-27T21:52:11.399Z,0.90
2022-08-27T21:54:41.911Z,0.90
2022-08-27T21:57:14.258Z,0.80
2022-08-27T21:59:50.103Z,0.63
2022-08-27T22:02:38.889Z,0.70
2022-08-27T22:05:08.004Z,0.80
2022-08-27T22:07:35.265Z,0.80
2022-08-27T22:10:02.578Z,0.70
2022-08-27T22:12:29.789Z,0.90
2022-08-27T22:14:56.893Z,0.70
2022-08-27T22:17:25.382Z,1.00
2022-08-27T22:19:52.845Z,0.88
2022-08-27T22:22:21.202Z,0.85
2022-08-27T22:24:48.364Z,1.52
2022-08-27T22:27:15.632Z,2.58
2022-08-27T22:29:42.832Z,1.30
2022-08-27T22:32:09.847Z,1.02
2022-08-27T22:34:37.087Z,3.70
2022-08-27T22:37:06.916Z,1.05
2022-08-27T22:39:33.938Z,1.23
2022-08-27T22:42:01.126Z,0.70
2022-08-27T22:44:29.649Z,0.77
2022-08-27T22:46:57.466Z,0.88
2022-08-27T22:49:24.710Z,0.82
2022-08-27T22:51:51.749Z,0.98
2022-08-27T22:54:19.185Z,0.63
2022-08-27T22:56:46.223Z,1.13
2022-08-27T22:59:13.231Z,0.90
2022-08-27T23:01:40.593Z,1.88
2022-08-27T23:04:07.837Z,0.85
2022-08-27T23:06:35.093Z,0.82
2022-08-27T23:09:02.442Z,0.68
2022-08-27T23:11:31.728Z,0.80
2022-08-27T23:13:59.984Z,0.90
2022-08-27T23:16:30.528Z,0.90
2022-08-27T23:18:57.744Z,0.80
2022-08-27T23:21:24.819Z,0.80
2022-08-27T23:23:52.101Z,1.15
2022-08-27T23:26:37.641Z,0.70
2022-08-27T23:29:05.564Z,0.93
2022-08-27T23:31:32.910Z,0.93
2022-08-27T23:34:00.682Z,1.00
2022-08-27T23:36:29.369Z,1.20
2022-08-27T23:38:58.339Z,1.00
2022-08-27T23:41:27.201Z,1.10
2022-08-27T23:43:54.398Z,1.13
2022-08-27T23:46:21.610Z,1.27
2022-08-27T23:48:48.694Z,1.10
2022-08-27T23:51:15.783Z,1.10
2022-08-27T23:53:42.782Z,1.20
2022-08-27T23:56:10.796Z,1.55
2022-08-27T23:58:37.863Z,1.10
